Time;durP1;ratioP1;P1;durP2;ratioP2;P2;SDS_P1;SDS_P2;PMS_P1;PMS_P2;Temp;Humidity;BMP_temperature;BMP_pressure;BME280_temperature;BME280_humidity;BME280_pressure;Samples;Min_cycle;Max_cycle;Signal;HPM_P1;HPM_P2
2022/04/06 00:00:34;;;;;;;10.53;6.60;;;9.50;99.90;;;;;;4181610;28;20958;-78
2022/04/06 00:02:37;;;;;;;10.37;6.80;;;9.30;99.90;;;;;;4181490;28;20457;-77
2022/04/06 00:04:39;;;;;;;10.10;6.60;;;9.60;99.90;;;;;;4183583;28;20461;-77
2022/04/06 00:06:41;;;;;;;11.10;6.57;;;9.50;99.90;;;;;;4182984;28;20280;-77
2022/04/06 00:08:43;;;;;;;10.43;6.27;;;9.50;99.90;;;;;;4176758;28;20563;-77
2022/04/06 00:10:45;;;;;;;10.13;6.10;;;9.50;99.90;;;;;;4181502;28;20514;-77
2022/04/06 00:12:46;;;;;;;10.90;6.43;;;9.90;99.90;;;;;;4181463;28;20530;-78
2022/04/06 00:14:49;;;;;;;10.30;6.30;;;9.50;99.90;;;;;;4182706;28;20507;-78
2022/04/06 00:16:51;;;;;;;9.63;5.90;;;9.50;99.90;;;;;;4181004;28;20510;-79
2022/04/06 00:18:53;;;;;;;10.67;6.33;;;9.50;99.90;;;;;;4184469;28;20832;-79
2022/04/06 00:20:55;;;;;;;10.90;6.63;;;9.50;99.90;;;;;;4189198;28;20472;-78
2022/04/06 00:22:57;;;;;;;10.53;5.90;;;9.50;99.90;;;;;;4186053;28;20603;-79
2022/04/06 00:24:59;;;;;;;11.40;6.80;;;9.50;99.90;;;;;;4183931;28;20457;-79
2022/04/06 00:27:01;;;;;;;11.50;6.60;;;9.40;99.90;;;;;;4174690;28;20920;-78
2022/04/06 00:29:03;;;;;;;11.63;6.80;;;9.40;99.90;;;;;;4181679;28;20505;-79
2022/04/06 00:31:06;;;;;;;11.47;6.73;;;9.40;99.90;;;;;;4182512;28;20457;-78
2022/04/06 00:33:08;;;;;;;13.47;7.60;;;9.30;99.90;;;;;;4169764;28;20474;-78
2022/04/06 00:37:29;;;;;;;12.27;6.60;;;9.30;99.90;;;;;;4187127;28;20490;-78
2022/04/06 00:39:31;;;;;;;13.23;7.20;;;9.20;99.90;;;;;;4182914;28;20526;-79
2022/04/06 00:41:33;;;;;;;12.43;6.40;;;9.20;99.90;;;;;;4177466;28;20946;-78
2022/04/06 00:43:35;;;;;;;11.70;6.90;;;9.20;99.90;;;;;;4180876;28;20461;-79
2022/04/06 00:45:38;;;;;;;12.97;6.90;;;9.10;99.90;;;;;;4181251;28;20960;-79
2022/04/06 00:47:41;;;;;;;12.20;6.57;;;9.10;99.90;;;;;;4175273;28;20488;-78
2022/04/06 00:49:42;;;;;;;12.63;6.77;;;9.10;99.90;;;;;;4173549;28;20477;-78
2022/04/06 00:51:46;;;;;;;13.13;6.90;;;9.10;99.90;;;;;;4175508;28;20942;-78
2022/04/06 00:53:48;;;;;;;10.50;6.47;;;9.10;99.90;;;;;;4183040;28;20457;-78
2022/04/06 00:55:50;;;;;;;13.13;6.90;;;9.10;99.90;;;;;;4186035;28;20490;-78
2022/04/06 00:57:52;;;;;;;11.30;6.63;;;9.10;99.90;;;;;;4176644;28;20582;-78
2022/04/06 00:59:55;;;;;;;11.53;6.70;;;9.10;99.90;;;;;;4186835;28;20510;-79
2022/04/06 01:01:58;;;;;;;12.87;6.63;;;9.10;99.90;;;;;;4176338;28;20860;-78
2022/04/06 01:04:01;;;;;;;11.30;6.73;;;9.10;99.90;;;;;;4179402;28;21031;-78
2022/04/06 01:06:03;;;;;;;11.13;6.73;;;9.10;99.90;;;;;;4180848;28;20473;-77
2022/04/06 01:08:05;;;;;;;11.80;7.03;;;9.10;99.90;;;;;;4180353;28;20493;-78
2022/04/06 01:10:07;;;;;;;12.83;6.83;;;9.10;99.90;;;;;;4178075;28;20507;-78
2022/04/06 01:12:10;;;;;;;12.97;6.93;;;9.10;99.90;;;;;;4180314;28;20875;-78
2022/04/06 01:14:12;;;;;;;11.93;6.90;;;9.10;99.90;;;;;;4180616;28;21055;-78
2022/04/06 01:16:14;;;;;;;13.73;7.30;;;9.10;99.90;;;;;;4167138;28;20473;-78
2022/04/06 01:18:16;;;;;;;12.47;7.03;;;9.10;99.90;;;;;;4176851;28;20599;-78
2022/04/06 01:20:19;;;;;;;15.13;8.30;;;9.00;99.90;;;;;;4176378;28;20505;-78
2022/04/06 01:22:22;;;;;;;13.43;7.77;;;9.00;99.90;;;;;;4180510;28;20461;-79
2022/04/06 01:24:24;;;;;;;13.50;7.33;;;9.00;99.90;;;;;;4177522;28;20469;-79
2022/04/06 01:26:26;;;;;;;13.10;7.30;;;9.00;99.90;;;;;;4196611;28;20478;-79
2022/04/06 01:28:28;;;;;;;14.57;7.63;;;9.00;99.90;;;;;;4195531;28;20525;-79
2022/04/06 01:30:30;;;;;;;16.10;7.57;;;9.00;99.90;;;;;;4197186;28;20467;-79
2022/04/06 01:32:32;;;;;;;13.60;7.60;;;9.00;99.90;;;;;;4188461;28;20471;-78
2022/04/06 01:34:34;;;;;;;13.53;7.27;;;8.90;99.90;;;;;;4193008;28;20492;-79
2022/04/06 01:36:36;;;;;;;13.40;7.00;;;8.90;99.90;;;;;;4197300;28;20867;-78
2022/04/06 01:38:39;;;;;;;12.60;7.27;;;8.90;99.90;;;;;;4180817;28;20484;-78
2022/04/06 01:40:41;;;;;;;11.43;6.90;;;8.90;99.90;;;;;;4195656;28;20471;-79
2022/04/06 01:42:42;;;;;;;17.10;7.57;;;8.90;99.90;;;;;;4196888;28;20474;-79
2022/04/06 01:44:45;;;;;;;10.97;6.50;;;8.90;99.90;;;;;;4208752;28;20471;-78
2022/04/06 01:46:47;;;;;;;10.57;6.40;;;8.90;99.90;;;;;;4211273;28;20458;-78
2022/04/06 01:53:23;;;;;;;16.47;7.20;;;8.90;99.90;;;;;;4210850;28;20576;-79
2022/04/06 01:55:27;;;;;;;11.50;6.27;;;8.90;99.90;;;;;;4213162;28;20453;-80
2022/04/06 01:57:29;;;;;;;10.57;5.47;;;8.90;99.90;;;;;;4203607;28;20524;-79
2022/04/06 01:59:31;;;;;;;11.57;5.93;;;8.90;99.90;;;;;;4205603;28;20472;-79
2022/04/06 02:01:34;;;;;;;8.53;4.93;;;8.90;99.90;;;;;;4204281;28;20493;-79
2022/04/06 02:03:36;;;;;;;10.20;5.37;;;8.90;99.90;;;;;;4198866;28;20455;-79
2022/04/06 02:05:38;;;;;;;11.20;5.33;;;8.90;99.90;;;;;;4201371;28;20466;-79
2022/04/06 02:07:39;;;;;;;10.97;5.67;;;8.90;99.90;;;;;;4198908;28;20484;-79
2022/04/06 02:09:42;;;;;;;11.27;6.43;;;8.80;99.90;;;;;;4212032;28;20958;-79
2022/04/06 02:11:45;;;;;;;11.13;6.30;;;8.80;99.90;;;;;;4202444;28;20467;-79
2022/04/06 02:13:47;;;;;;;14.63;7.20;;;8.80;99.90;;;;;;4201104;28;20590;-79
2022/04/06 02:15:49;;;;;;;13.33;7.60;;;8.90;99.90;;;;;;4191956;28;20468;-79
2022/04/06 02:17:51;;;;;;;14.97;8.10;;;8.90;99.90;;;;;;4199025;28;20471;-79
2022/04/06 02:19:53;;;;;;;15.97;7.97;;;9.00;99.90;;;;;;4200708;28;20538;-79
2022/04/06 02:21:55;;;;;;;15.20;8.10;;;8.90;99.90;;;;;;4200657;28;20456;-79
2022/04/06 02:23:57;;;;;;;14.80;8.30;;;8.90;99.90;;;;;;4200501;28;20462;-78
2022/04/06 02:25:59;;;;;;;16.63;8.43;;;8.90;99.90;;;;;;4184920;28;20908;-79
2022/04/06 02:28:03;;;;;;;17.73;8.90;;;8.90;99.90;;;;;;4199971;28;20495;-80
2022/04/06 02:30:05;;;;;;;16.80;9.60;;;8.90;99.90;;;;;;4201357;28;20465;-79
2022/04/06 02:32:09;;;;;;;16.23;8.70;;;8.90;99.90;;;;;;4198508;28;20470;-78
2022/04/06 02:34:10;;;;;;;18.20;9.20;;;8.90;99.90;;;;;;4214035;28;20456;-78
2022/04/06 02:36:12;;;;;;;16.40;9.10;;;8.90;99.90;;;;;;4214514;28;20467;-79
2022/04/06 02:38:14;;;;;;;21.43;9.50;;;8.90;99.90;;;;;;4211668;28;20547;-79
2022/04/06 02:40:16;;;;;;;21.73;10.17;;;8.90;99.90;;;;;;4202749;28;20477;-79
2022/04/06 02:42:18;;;;;;;23.93;11.60;;;8.90;99.90;;;;;;4203798;28;20959;-79
2022/04/06 02:44:21;;;;;;;21.20;11.57;;;8.90;99.90;;;;;;4209032;28;20538;-79
2022/04/06 02:46:23;;;;;;;25.83;11.93;;;8.90;99.90;;;;;;4210654;28;20469;-79
2022/04/06 02:48:25;;;;;;;25.53;12.63;;;8.90;99.90;;;;;;4205368;28;20502;-79
2022/04/06 02:50:27;;;;;;;25.70;11.77;;;8.90;99.90;;;;;;4214026;28;21008;-79
2022/04/06 02:52:29;;;;;;;26.00;12.17;;;8.90;99.90;;;;;;4208785;28;20549;-79
2022/04/06 02:54:31;;;;;;;27.20;12.87;;;8.90;99.90;;;;;;4209755;28;20460;-78
2022/04/06 02:56:34;;;;;;;25.97;11.70;;;8.90;99.90;;;;;;4198879;28;20532;-79
2022/04/06 02:58:35;;;;;;;28.47;12.87;;;9.10;99.90;;;;;;4184643;28;20484;-77
2022/04/06 03:00:39;;;;;;;25.50;12.07;;;9.00;99.90;;;;;;4203572;28;20507;-78
2022/04/06 03:02:40;;;;;;;30.20;13.43;;;8.80;99.90;;;;;;4198166;28;21270;-78
2022/04/06 03:04:42;;;;;;;29.03;13.27;;;8.80;99.90;;;;;;4203000;28;20472;-77
2022/04/06 03:06:44;;;;;;;31.40;13.07;;;8.80;99.90;;;;;;4186919;28;20480;-78
2022/04/06 03:08:46;;;;;;;27.70;12.57;;;8.90;99.90;;;;;;4197931;28;20541;-78
2022/04/06 03:10:47;;;;;;;30.27;14.37;;;8.80;99.90;;;;;;4198587;28;20444;-77
2022/04/06 03:12:49;;;;;;;32.60;16.13;;;8.80;99.90;;;;;;4199460;28;20479;-78
2022/04/06 03:14:51;;;;;;;33.13;16.03;;;8.80;99.90;;;;;;4197471;28;20462;-78
2022/04/06 03:16:54;;;;;;;30.50;15.33;;;8.70;99.90;;;;;;4198796;28;20457;-78
2022/04/06 03:18:57;;;;;;;32.43;15.80;;;8.80;99.90;;;;;;4198577;28;20485;-78
2022/04/06 03:20:59;;;;;;;34.43;16.87;;;8.80;99.90;;;;;;4198382;28;20452;-78
2022/04/06 03:23:01;;;;;;;31.43;15.60;;;8.80;99.90;;;;;;4197432;28;20458;-78
2022/04/06 03:25:04;;;;;;;35.13;16.37;;;8.90;99.90;;;;;;4184810;28;20818;-78
2022/04/06 03:27:05;;;;;;;36.60;15.77;;;8.80;99.90;;;;;;4195560;28;20482;-78
2022/04/06 03:29:07;;;;;;;36.33;15.60;;;8.70;99.90;;;;;;4197916;28;20513;-78
2022/04/06 03:31:09;;;;;;;35.67;14.27;;;8.70;99.90;;;;;;4198485;28;20908;-78
2022/04/06 03:33:15;;;;;;;25.27;12.97;;;8.70;99.90;;;;;;4191096;28;20558;-78
2022/04/06 03:35:17;;;;;;;26.37;12.23;;;8.70;99.90;;;;;;4195847;28;20505;-77
2022/04/06 03:37:18;;;;;;;32.10;12.60;;;8.70;99.90;;;;;;4197574;28;20833;-77
2022/04/06 03:39:23;;;;;;;23.90;12.07;;;8.70;99.90;;;;;;4196329;28;20855;-78
2022/04/06 03:41:25;;;;;;;27.17;11.10;;;8.70;99.90;;;;;;4197274;28;20487;-78
2022/04/06 03:43:27;;;;;;;20.13;9.47;;;8.80;99.90;;;;;;4195182;28;20476;-77
2022/04/06 03:45:28;;;;;;;18.60;8.57;;;8.60;99.90;;;;;;4197885;28;20478;-77
2022/04/06 03:47:31;;;;;;;19.90;8.13;;;8.60;99.90;;;;;;4197940;28;20480;-78
2022/04/06 03:49:34;;;;;;;19.17;7.77;;;8.60;99.90;;;;;;4198423;28;20601;-78
2022/04/06 03:51:36;;;;;;;17.93;7.47;;;8.60;99.90;;;;;;4202733;28;20470;-77
2022/04/06 03:53:38;;;;;;;14.00;6.83;;;8.50;99.90;;;;;;4197028;28;20528;-78
2022/04/06 03:55:40;;;;;;;17.93;6.87;;;8.60;99.90;;;;;;4186395;28;20851;-77
2022/04/06 03:57:42;;;;;;;16.67;7.07;;;8.50;99.90;;;;;;4190328;28;20505;-77
2022/04/06 03:59:44;;;;;;;15.77;6.90;;;8.50;99.90;;;;;;4200066;28;20544;-77
2022/04/06 04:01:46;;;;;;;14.83;6.00;;;8.60;99.90;;;;;;4201490;28;20447;-78
2022/04/06 04:03:48;;;;;;;15.00;5.67;;;8.50;99.90;;;;;;4193264;28;20463;-77
2022/04/06 04:05:51;;;;;;;11.93;5.53;;;8.50;99.90;;;;;;4197290;28;20827;-77
2022/04/06 04:07:53;;;;;;;12.03;6.03;;;8.40;99.90;;;;;;4196607;28;20491;-78
2022/04/06 04:09:54;;;;;;;12.43;5.13;;;8.40;99.90;;;;;;4198119;28;20458;-78
2022/04/06 04:11:56;;;;;;;16.80;5.17;;;8.40;99.90;;;;;;4200222;28;20458;-77
2022/04/06 04:13:59;;;;;;;12.60;5.07;;;8.90;99.90;;;;;;4193921;28;20474;-78
2022/04/06 04:16:01;;;;;;;12.07;4.77;;;8.40;99.90;;;;;;4195981;28;20455;-78
2022/04/06 04:18:03;;;;;;;14.13;5.37;;;8.50;99.90;;;;;;4205533;28;20505;-78
2022/04/06 04:20:06;;;;;;;16.07;5.23;;;8.40;99.90;;;;;;4200257;28;20821;-78
2022/04/06 04:22:09;;;;;;;19.20;4.93;;;8.40;99.90;;;;;;4196410;28;20491;-78
2022/04/06 04:24:11;;;;;;;14.77;4.60;;;8.40;99.90;;;;;;4196821;28;20485;-78
2022/04/06 04:26:13;;;;;;;11.13;4.93;;;8.40;99.90;;;;;;4197452;28;20452;-78
2022/04/06 04:28:14;;;;;;;13.23;5.27;;;8.40;99.90;;;;;;4200983;28;20569;-78
2022/04/06 04:30:16;;;;;;;13.63;5.00;;;8.40;99.90;;;;;;4181374;28;20523;-78
2022/04/06 04:32:22;;;;;;;13.33;5.07;;;8.40;99.90;;;;;;4193399;28;20532;-78
2022/04/06 04:34:24;;;;;;;13.40;4.20;;;8.40;99.90;;;;;;4202876;28;20510;-79
2022/04/06 04:36:26;;;;;;;14.77;5.20;;;8.40;99.90;;;;;;4200830;28;20463;-79
2022/04/06 04:38:29;;;;;;;15.13;5.33;;;8.40;99.90;;;;;;4204089;28;20470;-78
2022/04/06 04:40:31;;;;;;;10.93;5.07;;;8.40;99.90;;;;;;4206165;28;20704;-78
2022/04/06 04:42:32;;;;;;;13.13;4.93;;;8.40;99.90;;;;;;4206171;28;20459;-78
2022/04/06 04:44:35;;;;;;;9.93;4.53;;;8.40;99.90;;;;;;4211992;28;20479;-78
2022/04/06 04:46:36;;;;;;;17.40;5.40;;;8.40;99.90;;;;;;4211741;28;20479;-78
2022/04/06 04:48:38;;;;;;;14.10;5.10;;;8.40;99.90;;;;;;4204137;28;20486;-78
2022/04/06 04:50:40;;;;;;;16.00;5.47;;;8.40;99.90;;;;;;4195597;28;20485;-78
2022/04/06 04:52:42;;;;;;;18.30;5.63;;;8.40;99.90;;;;;;4195901;28;20462;-78
2022/04/06 04:54:45;;;;;;;12.67;5.70;;;8.40;99.90;;;;;;4198142;28;20533;-78
2022/04/06 04:56:47;;;;;;;15.23;5.27;;;8.40;99.90;;;;;;4192047;28;20464;-78
2022/04/06 04:58:48;;;;;;;20.10;6.30;;;8.40;99.90;;;;;;4185716;28;20476;-78
2022/04/06 05:00:50;;;;;;;16.30;6.23;;;8.40;99.90;;;;;;4198396;28;20480;-78
2022/04/06 05:02:52;;;;;;;16.07;6.73;;;8.40;99.90;;;;;;4205668;28;20811;-78
2022/04/06 05:04:54;;;;;;;13.83;7.07;;;8.40;99.90;;;;;;4201481;28;20950;-78
2022/04/06 05:06:55;;;;;;;17.50;7.00;;;8.40;99.90;;;;;;4202295;28;20516;-78
2022/04/06 05:08:57;;;;;;;22.27;7.37;;;8.40;99.90;;;;;;4200991;28;20505;-78
2022/04/06 05:11:00;;;;;;;17.67;6.80;;;8.40;99.90;;;;;;4195777;28;20463;-78
2022/04/06 05:13:03;;;;;;;23.67;7.77;;;8.40;99.90;;;;;;4195651;28;20450;-78
2022/04/06 05:15:07;;;;;;;14.87;7.20;;;8.50;99.90;;;;;;4202272;28;20456;-78
2022/04/06 05:17:09;;;;;;;16.67;7.43;;;8.50;99.90;;;;;;4196448;28;20498;-78
2022/04/06 05:19:11;;;;;;;23.47;8.17;;;8.50;99.90;;;;;;4196255;28;20876;-78
2022/04/06 05:21:12;;;;;;;16.83;7.67;;;8.50;99.90;;;;;;4202992;28;20454;-78
2022/04/06 05:23:15;;;;;;;20.80;7.97;;;8.50;99.90;;;;;;4200403;28;20463;-78
2022/04/06 05:25:16;;;;;;;16.63;8.30;;;8.50;99.90;;;;;;4202122;28;20491;-78
2022/04/06 05:27:20;;;;;;;19.03;8.13;;;8.50;99.90;;;;;;4195223;28;20471;-78
2022/04/06 05:29:21;;;;;;;21.40;9.57;;;8.60;99.90;;;;;;4200581;28;20848;-78
2022/04/06 05:31:24;;;;;;;15.97;8.03;;;8.60;99.90;;;;;;4200423;28;20844;-78
2022/04/06 05:33:25;;;;;;;18.17;8.70;;;8.60;99.90;;;;;;4204904;28;20574;-78
2022/04/06 05:35:28;;;;;;;16.90;8.30;;;8.60;99.90;;;;;;4209462;28;20495;-78
2022/04/06 05:37:30;;;;;;;19.30;8.20;;;8.70;99.90;;;;;;4200635;28;20485;-78
2022/04/06 05:39:31;;;;;;;18.33;8.57;;;8.70;99.90;;;;;;4199367;28;20712;-78
2022/04/06 05:41:33;;;;;;;19.73;8.73;;;8.70;99.90;;;;;;4192560;28;20470;-78
2022/04/06 05:43:36;;;;;;;17.20;8.50;;;8.70;99.90;;;;;;4200296;28;20471;-78
2022/04/06 05:45:38;;;;;;;20.90;9.00;;;8.80;99.90;;;;;;4201669;28;20458;-78
2022/04/06 05:47:41;;;;;;;15.17;7.77;;;8.80;99.90;;;;;;4215896;28;20459;-78
2022/04/06 05:49:43;;;;;;;18.30;8.13;;;8.80;99.90;;;;;;4205660;28;20566;-78
2022/04/06 05:51:45;;;;;;;17.90;7.57;;;8.80;99.90;;;;;;4210976;28;20465;-78
2022/04/06 05:53:47;;;;;;;14.00;6.83;;;8.80;99.90;;;;;;4203721;28;20464;-78
2022/04/06 05:55:50;;;;;;;16.13;7.27;;;8.80;99.90;;;;;;4221200;28;20464;-78
2022/04/06 05:57:52;;;;;;;16.30;6.83;;;9.00;99.90;;;;;;4190334;28;20546;-78
2022/04/06 05:59:55;;;;;;;16.03;7.20;;;8.80;99.90;;;;;;4199171;28;20478;-78
2022/04/06 06:01:57;;;;;;;15.97;7.07;;;8.80;99.90;;;;;;4193683;28;20508;-78
2022/04/06 06:03:58;;;;;;;20.77;7.43;;;8.80;99.90;;;;;;4199697;28;21033;-78
2022/04/06 06:06:00;;;;;;;15.00;7.63;;;8.80;99.90;;;;;;4187655;28;20517;-78
2022/04/06 06:08:02;;;;;;;13.93;7.03;;;8.80;99.90;;;;;;4199461;28;20491;-78
2022/04/06 06:10:04;;;;;;;11.80;6.50;;;8.90;99.90;;;;;;4182870;28;21024;-78
2022/04/06 06:12:06;;;;;;;14.87;7.77;;;8.90;99.90;;;;;;4190061;28;20460;-78
2022/04/06 06:14:08;;;;;;;14.43;7.03;;;8.90;99.90;;;;;;4203949;28;20963;-78
2022/04/06 06:16:11;;;;;;;15.70;7.67;;;8.90;99.90;;;;;;4194776;28;20886;-78
2022/04/06 06:18:14;;;;;;;13.13;7.20;;;8.90;99.90;;;;;;4197485;28;20489;-78
2022/04/06 06:20:15;;;;;;;15.77;7.43;;;8.90;99.90;;;;;;4199351;28;20455;-78
2022/04/06 06:22:17;;;;;;;15.40;7.17;;;9.00;99.90;;;;;;4198883;28;20470;-78
2022/04/06 06:24:20;;;;;;;14.70;7.00;;;9.00;99.90;;;;;;4188744;28;20467;-78
2022/04/06 06:26:22;;;;;;;14.10;7.03;;;9.00;99.90;;;;;;4197938;28;20948;-78
2022/04/06 06:28:26;;;;;;;12.77;6.73;;;9.00;99.90;;;;;;4188722;28;20552;-78
2022/04/06 06:30:27;;;;;;;14.10;7.50;;;9.00;99.90;;;;;;4193210;28;20469;-78
2022/04/06 06:32:30;;;;;;;15.53;7.20;;;9.00;99.90;;;;;;4200856;28;21012;-78
2022/04/06 06:34:32;;;;;;;11.83;6.90;;;9.00;99.90;;;;;;4198322;28;20459;-78
2022/04/06 06:36:34;;;;;;;14.67;7.33;;;9.00;99.90;;;;;;4201302;28;20541;-78
2022/04/06 06:38:36;;;;;;;13.00;6.97;;;9.00;99.90;;;;;;4208813;28;20483;-78
2022/04/06 06:40:38;;;;;;;15.90;7.03;;;9.00;99.90;;;;;;4209113;28;20455;-78
2022/04/06 06:42:39;;;;;;;13.13;6.87;;;9.10;99.90;;;;;;4206783;28;20839;-78
2022/04/06 06:44:41;;;;;;;15.33;6.97;;;9.10;99.90;;;;;;4219375;28;20732;-78
2022/04/06 06:46:43;;;;;;;13.37;6.30;;;9.10;99.90;;;;;;4223267;28;20473;-78
2022/04/06 06:48:47;;;;;;;17.93;7.20;;;9.10;99.90;;;;;;4208742;28;20495;-78
2022/04/06 06:50:49;;;;;;;15.87;6.73;;;9.10;99.90;;;;;;4188551;28;20475;-77
2022/04/06 06:52:51;;;;;;;11.30;6.70;;;9.10;99.90;;;;;;4198708;28;20548;-77
2022/04/06 06:54:52;;;;;;;14.47;6.33;;;9.10;99.90;;;;;;4197368;28;20451;-77
2022/04/06 06:56:54;;;;;;;12.63;6.40;;;9.10;99.90;;;;;;4196792;28;20475;-77
2022/04/06 06:58:56;;;;;;;15.40;6.20;;;9.10;99.90;;;;;;4196304;28;20484;-77
2022/04/06 07:00:58;;;;;;;11.30;5.53;;;9.10;99.90;;;;;;4191533;28;21005;-78
2022/04/06 07:03:00;;;;;;;13.67;6.60;;;9.20;99.90;;;;;;4193238;28;20469;-78
2022/04/06 07:05:03;;;;;;;16.47;6.43;;;9.20;99.90;;;;;;4196532;28;20459;-78
2022/04/06 07:07:05;;;;;;;12.70;6.27;;;9.20;99.90;;;;;;4189213;28;20466;-78
2022/04/06 07:09:07;;;;;;;12.67;6.33;;;9.20;99.90;;;;;;4194344;28;20570;-76
2022/04/06 07:11:09;;;;;;;15.47;6.50;;;9.20;99.90;;;;;;4197991;28;20525;-77
2022/04/06 07:13:12;;;;;;;14.10;5.90;;;9.20;99.90;;;;;;4200449;28;20448;-77
2022/04/06 07:15:14;;;;;;;12.57;6.43;;;9.40;99.90;;;;;;4194547;28;20554;-76
2022/04/06 07:17:17;;;;;;;12.63;6.20;;;9.20;99.90;;;;;;4195042;28;20582;-78
2022/04/06 07:19:19;;;;;;;14.17;6.20;;;9.30;99.90;;;;;;4196515;28;20475;-77
2022/04/06 07:21:24;;;;;;;12.47;6.30;;;9.30;99.90;;;;;;4195410;28;20445;-76
2022/04/06 07:23:26;;;;;;;12.20;6.63;;;9.30;99.90;;;;;;4187748;28;20554;-76
2022/04/06 07:25:27;;;;;;;12.23;6.60;;;9.30;99.90;;;;;;4197002;28;20497;-76
2022/04/06 07:27:36;;;;;;;19.13;7.43;;;9.30;99.90;;;;;;4199920;28;20483;-76
2022/04/06 07:29:38;;;;;;;10.00;6.00;;;9.40;99.90;;;;;;4198104;28;20233;-76
2022/04/06 07:31:40;;;;;;;9.70;5.80;;;9.40;99.90;;;;;;4195262;28;20500;-76
2022/04/06 07:33:42;;;;;;;11.33;5.97;;;9.40;99.90;;;;;;4198197;28;20854;-76
2022/04/06 07:35:44;;;;;;;12.60;6.50;;;9.60;99.90;;;;;;4196706;28;20300;-76
2022/04/06 07:37:49;;;;;;;13.67;6.37;;;9.50;99.90;;;;;;4192436;28;20533;-76
2022/04/06 07:39:51;;;;;;;11.80;6.13;;;9.50;99.90;;;;;;4199410;28;20482;-78
2022/04/06 07:41:55;;;;;;;12.47;6.00;;;9.50;99.90;;;;;;4195784;28;20468;-78
2022/04/06 07:43:57;;;;;;;11.40;5.93;;;9.50;99.90;;;;;;4197896;28;20634;-77
2022/04/06 07:45:59;;;;;;;16.03;6.00;;;9.60;99.90;;;;;;4190608;28;21044;-77
2022/04/06 07:48:00;;;;;;;12.57;6.43;;;9.60;99.90;;;;;;4196584;28;20561;-77
2022/04/06 07:50:03;;;;;;;14.83;5.57;;;9.60;99.90;;;;;;4192701;28;20483;-78
2022/04/06 07:52:05;;;;;;;11.13;5.87;;;9.60;99.90;;;;;;4192327;28;20457;-78
2022/04/06 07:54:09;;;;;;;11.90;5.53;;;9.70;99.90;;;;;;4190705;28;20255;-78
2022/04/06 07:56:11;;;;;;;10.30;5.37;;;9.60;99.90;;;;;;4196157;28;20206;-78
2022/04/06 07:58:13;;;;;;;14.27;5.97;;;9.70;99.90;;;;;;4193426;28;20282;-78
2022/04/06 08:00:17;;;;;;;13.80;5.73;;;9.70;99.90;;;;;;4193926;28;20856;-77
2022/04/06 08:02:18;;;;;;;12.33;6.30;;;9.80;99.90;;;;;;4190524;28;20550;-78
2022/04/06 08:04:23;;;;;;;14.97;5.70;;;9.90;99.90;;;;;;4193769;28;20460;-77
2022/04/06 08:06:25;;;;;;;11.17;5.33;;;9.90;99.90;;;;;;4193205;28;20236;-78
2022/04/06 08:08:27;;;;;;;13.33;5.50;;;10.00;99.90;;;;;;4194417;28;20265;-77
2022/04/06 08:10:30;;;;;;;13.33;5.30;;;10.00;99.90;;;;;;4198038;28;20233;-77
2022/04/06 08:12:32;;;;;;;11.30;5.17;;;10.10;99.90;;;;;;4190100;28;20225;-77
2022/04/06 08:14:34;;;;;;;16.77;6.10;;;10.10;99.90;;;;;;4190698;28;20290;-78
2022/04/06 08:16:36;;;;;;;11.70;5.00;;;10.20;99.90;;;;;;4191395;28;20214;-78
2022/04/06 08:18:37;;;;;;;11.30;5.70;;;10.20;99.90;;;;;;4204552;28;20693;-78
2022/04/06 08:20:40;;;;;;;12.07;5.53;;;10.20;99.90;;;;;;4197240;28;20201;-77
2022/04/06 08:22:43;;;;;;;10.77;5.13;;;10.20;99.90;;;;;;4189184;28;20364;-78
2022/04/06 08:24:46;;;;;;;17.23;5.50;;;10.20;99.90;;;;;;4196616;28;20233;-78
2022/04/06 08:26:49;;;;;;;11.30;4.80;;;10.30;99.90;;;;;;4202949;28;20207;-77
2022/04/06 08:28:53;;;;;;;7.47;4.73;;;10.30;99.90;;;;;;4199286;28;20243;-78
2022/04/06 08:30:56;;;;;;;9.73;5.30;;;10.40;99.90;;;;;;4200315;28;20225;-77
2022/04/06 08:32:59;;;;;;;10.00;5.37;;;10.40;99.90;;;;;;4201240;28;20239;-78
2022/04/06 08:35:00;;;;;;;8.30;4.53;;;10.40;99.90;;;;;;4202456;28;20235;-77
2022/04/06 08:37:02;;;;;;;12.70;4.47;;;10.50;99.90;;;;;;4206429;28;20219;-80
2022/04/06 08:39:05;;;;;;;13.17;5.00;;;10.50;99.90;;;;;;4201469;28;20725;-80
2022/04/06 08:41:07;;;;;;;9.13;4.87;;;10.50;99.90;;;;;;4198721;28;20210;-78
2022/04/06 08:43:10;;;;;;;9.00;4.93;;;10.60;99.90;;;;;;4197336;28;20255;-79
2022/04/06 08:45:12;;;;;;;9.07;4.60;;;10.70;99.90;;;;;;4196049;28;20214;-79
2022/04/06 08:47:14;;;;;;;8.73;4.57;;;10.70;99.90;;;;;;4201100;28;20659;-78
2022/04/06 08:49:17;;;;;;;11.93;4.90;;;10.70;99.90;;;;;;4203610;28;20233;-79
2022/04/06 08:51:20;;;;;;;8.20;4.20;;;10.80;99.90;;;;;;4209224;28;20209;-79
2022/04/06 08:53:23;;;;;;;9.60;4.73;;;10.80;99.90;;;;;;4210352;28;20270;-78
2022/04/06 08:55:25;;;;;;;9.17;4.47;;;10.90;99.90;;;;;;4214623;28;20675;-78
2022/04/06 08:57:27;;;;;;;7.17;4.20;;;11.00;99.90;;;;;;4194037;28;20218;-78
2022/04/06 08:59:30;;;;;;;10.77;5.00;;;11.00;99.90;;;;;;4188142;28;20312;-80
2022/04/06 09:01:33;;;;;;;12.67;4.83;;;11.10;99.90;;;;;;4187782;28;20217;-78
2022/04/06 09:03:35;;;;;;;8.67;4.33;;;11.10;99.90;;;;;;4201934;28;21363;-80
2022/04/06 09:05:37;;;;;;;13.23;5.27;;;11.20;99.90;;;;;;4194023;28;20266;-79
2022/04/06 09:07:40;;;;;;;8.83;4.50;;;11.20;99.90;;;;;;4195503;28;20580;-82
2022/04/06 09:09:52;;;;;;;9.07;4.13;;;11.30;99.90;;;;;;4192457;28;20275;-83
2022/04/06 09:12:25;;;;;;;;;;;;;;;;;;;;;
2022/04/06 09:17:22;;;;;;;8.80;3.90;;;11.30;99.90;;;;;;4140568;28;20223;-78
2022/04/06 09:19:47;;;;;;;6.83;3.77;;;11.60;99.90;;;;;;4187291;28;20690;-81
2022/04/06 09:21:55;;;;;;;10.40;4.17;;;11.50;99.90;;;;;;4192274;28;20701;-79
2022/04/06 09:23:59;;;;;;;10.13;4.30;;;11.60;99.90;;;;;;4185803;28;20330;-77
2022/04/06 09:26:21;;;;;;;12.67;3.97;;;11.70;99.90;;;;;;4190123;28;20578;-78
2022/04/06 09:28:22;;;;;;;12.43;4.23;;;11.70;99.90;;;;;;4187477;28;20367;-80
2022/04/06 09:30:25;;;;;;;7.83;3.70;;;11.90;99.90;;;;;;4192962;28;20227;-76
2022/04/06 09:32:28;;;;;;;7.87;3.93;;;11.80;99.90;;;;;;4192404;28;20552;-79
2022/04/06 09:34:32;;;;;;;14.93;3.73;;;11.90;99.90;;;;;;4195178;28;20220;-77
2022/04/06 09:36:38;;;;;;;5.67;3.30;;;11.80;99.90;;;;;;4192110;28;20269;-76
2022/04/06 09:38:42;;;;;;;7.27;4.07;;;11.80;99.90;;;;;;4192137;28;20231;-79
2022/04/06 09:40:44;;;;;;;9.60;3.90;;;11.80;99.90;;;;;;4192464;28;20476;-76
2022/04/06 09:42:53;;;;;;;7.17;3.60;;;11.80;99.90;;;;;;4193710;28;20230;-81
2022/04/06 09:49:37;;;;;;;12.93;3.70;;;11.90;99.90;;;;;;4196973;28;20210;-79
2022/04/06 09:51:41;;;;;;;7.57;3.53;;;11.90;99.90;;;;;;4211773;28;20886;-80
2022/04/06 09:53:43;;;;;;;6.70;3.20;;;12.00;99.90;;;;;;4207071;28;20233;-80
2022/04/06 09:55:45;;;;;;;8.80;3.60;;;11.90;99.90;;;;;;4199319;28;20243;-79
2022/04/06 09:57:50;;;;;;;12.57;3.57;;;12.30;99.90;;;;;;4206670;28;20247;-80
2022/04/06 09:59:54;;;;;;;7.93;3.40;;;12.20;99.90;;;;;;4198742;28;20591;-80
2022/04/06 10:01:58;;;;;;;9.67;3.73;;;12.20;99.90;;;;;;4208005;28;20756;-81
2022/04/06 10:04:05;;;;;;;9.30;3.30;;;12.10;99.90;;;;;;4191580;28;20215;-77
2022/04/06 10:06:10;;;;;;;9.07;3.30;;;12.10;99.90;;;;;;4194857;28;20251;-78
2022/04/06 10:08:12;;;;;;;7.73;3.50;;;11.90;99.90;;;;;;4192772;28;20240;-80
2022/04/06 10:10:14;;;;;;;7.30;3.13;;;12.00;99.90;;;;;;4201900;28;20269;-79
2022/04/06 10:12:17;;;;;;;6.83;2.83;;;12.00;99.90;;;;;;4208408;28;20224;-80
2022/04/06 10:14:24;;;;;;;8.83;2.67;;;12.00;99.90;;;;;;4199326;28;20235;-79
2022/04/06 10:16:26;;;;;;;8.73;2.70;;;12.00;99.90;;;;;;4207651;28;20223;-79
2022/04/06 10:18:32;;;;;;;5.50;2.60;;;12.00;99.90;;;;;;4209566;28;20232;-80
2022/04/06 10:20:40;;;;;;;5.57;2.30;;;12.00;99.90;;;;;;4212833;28;20237;-79
2022/04/06 10:22:54;;;;;;;4.17;2.30;;;12.10;99.90;;;;;;4205083;28;20219;-80
2022/04/06 10:25:04;;;;;;;5.03;2.27;;;12.10;99.90;;;;;;4194554;28;20631;-80
2022/04/06 10:27:16;;;;;;;8.90;2.50;;;12.10;99.90;;;;;;4197210;28;20220;-80
2022/04/06 10:29:17;;;;;;;4.97;1.90;;;12.00;99.90;;;;;;4200701;28;20242;-80
2022/04/06 10:31:22;;;;;;;6.37;1.90;;;12.00;99.90;;;;;;4209602;28;20239;-80
2022/04/06 10:33:26;;;;;;;5.43;1.83;;;12.00;99.90;;;;;;4201122;28;20646;-80
2022/04/06 10:35:31;;;;;;;5.10;1.70;;;12.10;99.90;;;;;;4197271;28;20303;-80
2022/04/06 10:37:32;;;;;;;4.27;2.00;;;12.10;99.90;;;;;;4203195;28;20560;-79
2022/04/06 10:40:00;;;;;;;3.80;1.80;;;12.10;99.90;;;;;;4200296;28;20688;-80
2022/04/06 10:42:19;;;;;;;5.53;2.13;;;12.10;99.90;;;;;;4205376;28;20243;-80
2022/04/06 10:44:43;;;;;;;4.07;1.70;;;12.20;99.90;;;;;;4207309;28;20253;-85
2022/04/06 10:46:44;;;;;;;6.63;1.80;;;12.30;99.90;;;;;;4205575;28;20659;-81
2022/04/06 10:49:00;;;;;;;5.80;1.70;;;12.40;99.90;;;;;;4211756;28;20228;-82
2022/04/06 10:51:27;;;;;;;3.63;1.40;;;12.50;99.90;;;;;;4190912;28;20229;-82
2022/04/06 10:53:31;;;;;;;5.37;1.80;;;12.80;99.50;;;;;;4196937;28;20778;-82